Time;durP1;ratioP1;P1;durP2;ratioP2;P2;SDS_P1;SDS_P2;PMS_P1;PMS_P2;Temp;Humidity;BMP_temperature;BMP_pressure;BME280_temperature;BME280_humidity;BME280_pressure;Samples;Min_cycle;Max_cycle;Signal;HPM_P1;HPM_P2
2021/03/01 00:00:36;;;;;;;24.48;11.77;;;4.40;99.90;;;;;;5010089;28;20042;-83
2021/03/01 00:03:02;;;;;;;22.50;11.32;;;4.40;99.90;;;;;;5011639;28;20057;-84
2021/03/01 00:05:28;;;;;;;21.20;9.98;;;4.40;99.90;;;;;;5011436;28;20049;-84
2021/03/01 00:07:53;;;;;;;17.00;8.32;;;4.40;99.90;;;;;;5011241;28;20077;-83
2021/03/01 00:10:20;;;;;;;20.80;9.70;;;4.40;99.90;;;;;;5011641;28;20113;-84
2021/03/01 00:12:46;;;;;;;19.27;8.95;;;4.40;99.90;;;;;;5011589;28;20033;-84
2021/03/01 00:15:14;;;;;;;20.08;9.93;;;4.40;99.90;;;;;;5045527;28;20121;-84
2021/03/01 00:17:40;;;;;;;19.60;9.10;;;4.40;99.90;;;;;;5045230;28;20223;-83
2021/03/01 00:20:08;;;;;;;14.73;7.68;;;4.40;99.90;;;;;;5027852;28;20751;-84
2021/03/01 00:22:34;;;;;;;20.33;9.98;;;4.40;99.90;;;;;;5027766;28;20552;-83
2021/03/01 00:25:00;;;;;;;19.27;9.38;;;4.40;99.90;;;;;;5044361;28;20037;-84
2021/03/01 00:27:26;;;;;;;17.80;8.90;;;4.40;99.90;;;;;;5027757;28;20049;-84
2021/03/01 00:29:51;;;;;;;18.30;9.98;;;4.50;99.90;;;;;;5029294;28;20040;-84
2021/03/01 00:32:17;;;;;;;21.25;10.25;;;4.40;99.90;;;;;;5031297;28;20037;-84
2021/03/01 00:34:42;;;;;;;19.42;9.23;;;4.40;99.90;;;;;;5032686;28;20036;-84
2021/03/01 00:37:08;;;;;;;15.88;8.40;;;4.40;99.90;;;;;;5031559;28;20041;-84
2021/03/01 00:39:34;;;;;;;20.63;9.82;;;4.40;99.90;;;;;;5045724;28;20033;-84
2021/03/01 00:42:00;;;;;;;19.95;9.30;;;4.40;99.90;;;;;;5031263;28;20041;-83
2021/03/01 00:44:26;;;;;;;16.55;8.55;;;4.40;99.90;;;;;;5031400;28;20469;-83
2021/03/01 00:46:51;;;;;;;15.70;7.85;;;4.40;99.90;;;;;;5030925;28;20044;-84
2021/03/01 00:49:17;;;;;;;15.60;6.82;;;4.40;99.90;;;;;;5031142;28;20485;-83
2021/03/01 00:51:42;;;;;;;14.05;6.68;;;4.40;99.90;;;;;;5031276;28;20128;-84
2021/03/01 00:54:09;;;;;;;14.25;7.43;;;4.50;99.90;;;;;;5030958;28;20504;-82
2021/03/01 00:56:47;;;;;;;17.48;8.77;;;4.50;99.90;;;;;;5030940;28;20056;-83
2021/03/01 00:59:13;;;;;;;18.75;7.93;;;4.50;99.90;;;;;;5030783;28;20041;-83
2021/03/01 01:01:38;;;;;;;15.23;7.88;;;4.50;99.90;;;;;;5030835;28;20064;-83
2021/03/01 01:04:04;;;;;;;17.75;9.05;;;4.50;99.90;;;;;;5014436;28;20041;-84
2021/03/01 01:06:33;;;;;;;17.45;8.48;;;4.50;99.90;;;;;;5014337;28;20065;-84
2021/03/01 01:17:11;;;;;;;21.95;10.48;;;4.50;99.90;;;;;;5048245;28;20040;-84
2021/03/01 01:19:37;;;;;;;22.10;11.85;;;4.40;99.90;;;;;;5030221;28;20041;-83
2021/03/01 01:22:02;;;;;;;22.50;10.02;;;4.50;99.90;;;;;;5030369;28;20100;-83
2021/03/01 01:24:28;;;;;;;22.30;10.93;;;4.40;99.90;;;;;;5030398;28;20044;-84
2021/03/01 01:26:54;;;;;;;22.55;11.15;;;4.50;99.90;;;;;;5030545;28;20069;-83
2021/03/01 01:29:19;;;;;;;22.70;11.43;;;4.50;99.90;;;;;;5046778;28;20045;-84
2021/03/01 01:31:45;;;;;;;23.13;11.88;;;4.40;99.90;;;;;;5030366;28;20116;-83
2021/03/01 01:34:11;;;;;;;22.38;10.52;;;4.50;99.90;;;;;;5046678;28;20036;-84
2021/03/01 01:36:37;;;;;;;20.17;10.93;;;4.50;99.90;;;;;;5014863;28;20080;-83
2021/03/01 01:39:03;;;;;;;22.58;11.40;;;4.50;99.90;;;;;;5013794;28;20040;-83
2021/03/01 01:41:29;;;;;;;24.05;12.57;;;4.50;99.90;;;;;;5013264;28;20064;-83
2021/03/01 01:43:54;;;;;;;22.10;11.85;;;4.50;99.90;;;;;;5013882;28;20513;-83
2021/03/01 01:46:20;;;;;;;22.80;10.18;;;4.50;99.90;;;;;;5046187;28;20467;-83
2021/03/01 01:48:46;;;;;;;26.50;13.35;;;4.50;99.90;;;;;;5047500;28;20038;-84
2021/03/01 01:51:11;;;;;;;24.65;12.35;;;4.50;99.90;;;;;;5013439;28;20523;-84
2021/03/01 01:53:38;;;;;;;25.15;11.93;;;4.40;99.90;;;;;;5013617;28;20037;-84
2021/03/01 01:56:03;;;;;;;20.40;11.18;;;4.40;99.90;;;;;;5013471;28;20065;-84
2021/03/01 01:58:30;;;;;;;22.20;10.57;;;4.40;99.90;;;;;;5013414;28;20037;-84
2021/03/01 02:00:56;;;;;;;23.90;11.32;;;4.40;99.90;;;;;;5013374;28;20046;-84
2021/03/01 02:03:43;;;;;;;24.10;11.50;;;4.40;99.90;;;;;;5013291;28;20422;-83
2021/03/01 02:06:38;;;;;;;19.05;10.02;;;4.40;99.90;;;;;;5013195;28;20029;-84
2021/03/01 02:09:52;;;;;;;20.45;10.07;;;4.40;99.90;;;;;;5013195;28;20068;-83
2021/03/01 02:12:23;;;;;;;22.15;10.63;;;4.40;99.90;;;;;;4982987;28;20045;-83
2021/03/01 02:15:00;;;;;;;19.42;10.35;;;4.40;99.90;;;;;;5013124;28;20033;-83
2021/03/01 02:17:26;;;;;;;20.15;10.38;;;4.40;99.90;;;;;;5009627;28;20098;-83
2021/03/01 02:19:52;;;;;;;24.88;11.68;;;4.40;99.90;;;;;;5025932;28;20129;-83
2021/03/01 02:22:18;;;;;;;23.23;11.30;;;4.40;99.90;;;;;;5009682;28;20042;-83
2021/03/01 02:24:59;;;;;;;20.30;10.82;;;4.30;99.90;;;;;;5009664;28;20038;-84
2021/03/01 02:27:29;;;;;;;17.42;8.40;;;4.40;99.90;;;;;;5025952;28;20041;-83
2021/03/01 02:30:18;;;;;;;21.17;10.93;;;4.40;99.90;;;;;;5025850;28;20144;-83
2021/03/01 02:32:46;;;;;;;19.67;10.55;;;4.40;99.90;;;;;;4993183;28;20121;-83
2021/03/01 02:35:14;;;;;;;21.85;10.50;;;4.40;99.90;;;;;;5025314;28;20050;-84
2021/03/01 02:37:41;;;;;;;20.65;9.68;;;4.40;99.90;;;;;;5009165;28;20125;-83
2021/03/01 02:40:09;;;;;;;19.63;9.23;;;4.40;99.90;;;;;;5042343;28;20109;-83
2021/03/01 02:42:38;;;;;;;16.73;8.52;;;4.40;99.90;;;;;;5029163;28;20037;-84
2021/03/01 02:45:06;;;;;;;17.70;9.13;;;4.50;99.90;;;;;;5012358;28;20251;-84
2021/03/01 02:47:32;;;;;;;19.17;9.60;;;4.40;99.90;;;;;;5028788;28;20390;-83
2021/03/01 02:49:59;;;;;;;22.92;10.75;;;4.40;99.90;;;;;;5028661;28;20076;-84
2021/03/01 02:52:26;;;;;;;19.48;9.48;;;4.40;99.90;;;;;;5011885;28;20041;-84
2021/03/01 02:54:54;;;;;;;20.05;9.55;;;4.30;99.90;;;;;;5011518;28;20042;-84
2021/03/01 02:57:22;;;;;;;21.58;10.65;;;4.30;99.90;;;;;;5012246;28;20060;-83
2021/03/01 02:59:50;;;;;;;19.90;10.63;;;4.30;99.90;;;;;;5028820;28;20396;-83
2021/03/01 03:02:17;;;;;;;20.88;10.18;;;4.30;99.90;;;;;;5012097;28;20049;-83
2021/03/01 03:04:45;;;;;;;21.17;10.20;;;4.30;99.90;;;;;;5011961;28;20037;-83
2021/03/01 03:07:11;;;;;;;19.23;9.63;;;4.30;99.90;;;;;;5011783;28;20049;-83
2021/03/01 03:09:38;;;;;;;20.40;9.40;;;4.30;99.90;;;;;;5012104;28;20037;-83
2021/03/01 03:12:05;;;;;;;18.95;9.10;;;4.30;99.90;;;;;;5028534;28;20041;-84
2021/03/01 03:14:34;;;;;;;20.83;10.60;;;4.30;99.90;;;;;;5011854;28;20042;-84
2021/03/01 03:17:00;;;;;;;18.58;9.48;;;4.30;99.90;;;;;;5011639;28;20041;-84
2021/03/01 03:19:27;;;;;;;22.75;10.07;;;4.30;99.90;;;;;;5028264;28;20037;-84
2021/03/01 03:21:52;;;;;;;20.83;10.25;;;4.30;99.90;;;;;;5028262;28;20087;-83
2021/03/01 03:24:18;;;;;;;26.85;11.23;;;4.30;99.90;;;;;;5028339;28;20041;-84
2021/03/01 03:26:44;;;;;;;22.33;11.70;;;4.40;99.90;;;;;;5028207;28;20060;-83
2021/03/01 03:29:09;;;;;;;21.55;10.88;;;4.30;99.90;;;;;;5044529;28;20040;-84
2021/03/01 03:31:35;;;;;;;25.42;11.45;;;4.30;99.90;;;;;;5028124;28;20053;-84
2021/03/01 03:34:01;;;;;;;21.60;11.18;;;4.30;99.90;;;;;;5028205;28;20064;-83
2021/03/01 03:36:41;;;;;;;22.92;12.00;;;4.30;99.90;;;;;;5027985;28;20115;-84
2021/03/01 03:39:11;;;;;;;25.48;12.10;;;4.30;99.90;;;;;;5027987;28;20029;-83
2021/03/01 03:41:37;;;;;;;22.35;10.13;;;4.20;99.90;;;;;;5011653;28;20041;-83
2021/03/01 03:44:09;;;;;;;22.45;10.23;;;4.20;99.90;;;;;;5027994;28;20091;-83
2021/03/01 03:46:35;;;;;;;20.27;9.50;;;4.20;99.90;;;;;;5027890;28;20469;-83
2021/03/01 03:49:02;;;;;;;19.73;9.55;;;4.20;99.90;;;;;;5011647;28;20042;-83
2021/03/01 03:51:29;;;;;;;16.17;8.82;;;4.10;99.90;;;;;;5011430;28;20148;-83
2021/03/01 03:53:59;;;;;;;19.55;10.10;;;4.20;99.90;;;;;;5044457;28;20060;-84
2021/03/01 03:56:30;;;;;;;17.38;8.57;;;4.20;99.90;;;;;;5011448;28;20056;-83
2021/03/01 03:59:00;;;;;;;19.15;9.90;;;4.10;99.90;;;;;;5011538;28;20047;-82
2021/03/01 04:01:29;;;;;;;18.70;9.43;;;4.10;99.90;;;;;;5011428;28;20108;-84
2021/03/01 04:04:01;;;;;;;21.15;9.50;;;4.10;99.90;;;;;;5028024;28;20045;-83
2021/03/01 04:06:27;;;;;;;20.25;9.45;;;4.10;99.90;;;;;;5014910;28;20045;-83
2021/03/01 04:08:55;;;;;;;18.80;8.77;;;4.10;99.90;;;;;;5032044;28;20072;-83
2021/03/01 04:11:23;;;;;;;21.27;9.93;;;4.10;99.90;;;;;;5031811;28;20045;-84
2021/03/01 04:13:53;;;;;;;21.20;10.40;;;4.10;99.90;;;;;;5015512;28;20045;-83
2021/03/01 04:16:20;;;;;;;24.03;11.17;;;4.10;99.90;;;;;;5031499;28;20049;-83
2021/03/01 04:18:48;;;;;;;22.58;10.85;;;4.10;99.90;;;;;;5031840;28;20044;-84
2021/03/01 04:21:16;;;;;;;23.05;11.32;;;4.10;99.90;;;;;;5031614;28;20041;-83
2021/03/01 04:23:45;;;;;;;25.90;10.68;;;4.10;99.90;;;;;;5031508;28;20037;-83
2021/03/01 04:26:12;;;;;;;23.92;11.43;;;4.10;99.90;;;;;;5047986;28;20037;-83
2021/03/01 04:28:39;;;;;;;21.65;9.95;;;4.10;99.90;;;;;;5048124;28;20045;-84
2021/03/01 04:31:08;;;;;;;21.60;11.55;;;4.00;99.90;;;;;;5031504;28;20124;-84
2021/03/01 04:33:35;;;;;;;24.42;11.10;;;4.10;99.90;;;;;;5031483;28;20033;-83
2021/03/01 04:36:03;;;;;;;21.90;10.65;;;4.10;99.90;;;;;;5047624;28;20087;-83
2021/03/01 04:38:30;;;;;;;20.73;9.30;;;4.10;99.90;;;;;;5031265;28;20069;-83
2021/03/01 04:40:56;;;;;;;23.20;11.13;;;4.10;99.90;;;;;;5034307;28;20049;-83
2021/03/01 04:43:23;;;;;;;20.30;9.65;;;4.10;99.90;;;;;;5064436;28;20041;-83
2021/03/01 04:45:53;;;;;;;21.25;10.52;;;4.10;99.90;;;;;;5014709;28;20041;-83
2021/03/01 04:48:22;;;;;;;22.05;9.73;;;4.10;99.90;;;;;;5048965;28;20048;-83
2021/03/01 04:50:49;;;;;;;27.55;11.52;;;4.10;99.90;;;;;;5014751;28;20048;-83
2021/03/01 04:53:16;;;;;;;22.83;10.70;;;4.10;99.90;;;;;;5047294;28;20052;-83
2021/03/01 04:55:44;;;;;;;23.17;9.93;;;4.10;99.90;;;;;;5014467;28;20068;-83
2021/03/01 04:58:10;;;;;;;20.77;10.48;;;4.10;99.90;;;;;;5014618;28;20048;-83
2021/03/01 05:00:37;;;;;;;24.83;11.43;;;4.10;99.90;;;;;;5014460;28;20049;-83
2021/03/01 05:03:06;;;;;;;27.33;12.07;;;4.10;99.90;;;;;;5014644;28;20100;-84
2021/03/01 05:05:59;;;;;;;28.33;13.02;;;4.00;99.90;;;;;;5014106;28;20037;-84
2021/03/01 05:08:26;;;;;;;26.42;11.98;;;4.00;99.90;;;;;;4970740;28;20081;-83
2021/03/01 05:10:52;;;;;;;27.00;11.57;;;4.00;99.90;;;;;;4987025;28;20078;-82
2021/03/01 05:13:18;;;;;;;22.38;10.05;;;4.00;99.90;;;;;;4958105;29;20035;-83
2021/03/01 05:15:43;;;;;;;22.45;10.55;;;4.10;99.90;;;;;;4956297;28;20366;-83
2021/03/01 05:18:09;;;;;;;19.77;9.88;;;4.10;99.90;;;;;;4950605;29;20079;-83
2021/03/01 05:20:35;;;;;;;20.67;9.15;;;4.10;99.90;;;;;;4932418;29;20078;-83
2021/03/01 05:23:00;;;;;;;15.65;7.35;;;4.00;99.90;;;;;;4932294;29;20076;-83
2021/03/01 05:25:26;;;;;;;18.80;8.38;;;4.00;99.90;;;;;;4932440;29;20044;-83
2021/03/01 05:27:53;;;;;;;20.05;9.15;;;4.00;99.90;;;;;;4931745;29;20040;-83
2021/03/01 05:30:19;;;;;;;20.40;8.50;;;4.00;99.90;;;;;;4947878;29;20059;-83
2021/03/01 05:32:44;;;;;;;18.73;8.52;;;4.00;99.90;;;;;;4932006;29;20044;-82
2021/03/01 05:35:10;;;;;;;17.30;8.75;;;4.00;99.90;;;;;;4932141;29;20044;-83
2021/03/01 05:37:36;;;;;;;21.58;9.90;;;4.00;99.90;;;;;;4931873;29;20071;-83
2021/03/01 05:40:04;;;;;;;20.17;9.00;;;4.00;99.90;;;;;;4959912;28;20403;-82
2021/03/01 05:42:33;;;;;;;23.35;11.15;;;4.00;99.90;;;;;;4969805;28;20042;-83
2021/03/01 05:45:00;;;;;;;20.95;9.85;;;3.90;99.90;;;;;;4991449;28;20034;-82
2021/03/01 05:47:26;;;;;;;20.77;9.57;;;3.90;99.90;;;;;;5029701;28;20041;-82
2021/03/01 05:49:54;;;;;;;25.02;11.35;;;3.90;99.90;;;;;;5029820;28;20038;-83
2021/03/01 05:52:21;;;;;;;20.90;9.80;;;3.90;99.90;;;;;;5047258;28;20041;-82
2021/03/01 05:54:47;;;;;;;25.90;12.30;;;3.90;99.90;;;;;;5029398;28;20068;-83
2021/03/01 05:57:13;;;;;;;22.15;11.43;;;3.80;99.90;;;;;;5015300;28;20033;-82
2021/03/01 05:59:40;;;;;;;23.65;10.52;;;3.80;99.90;;;;;;5012998;28;20051;-82
2021/03/01 06:02:07;;;;;;;20.88;10.20;;;3.80;99.90;;;;;;5012781;28;20108;-82
2021/03/01 06:04:33;;;;;;;23.25;10.38;;;3.80;99.90;;;;;;5029204;28;20045;-82
2021/03/01 06:06:58;;;;;;;21.40;9.38;;;3.80;99.90;;;;;;5040116;23;20047;-82
2021/03/01 06:09:25;;;;;;;22.15;9.57;;;3.80;99.90;;;;;;5013220;28;20083;-82
2021/03/01 06:11:54;;;;;;;24.30;11.93;;;3.70;99.90;;;;;;5029370;28;20034;-83
2021/03/01 06:14:20;;;;;;;20.95;10.10;;;3.70;99.90;;;;;;5029363;28;20049;-83
2021/03/01 06:17:10;;;;;;;23.50;12.15;;;3.70;99.90;;;;;;5029209;28;20052;-82
2021/03/01 06:19:58;;;;;;;20.25;9.10;;;3.70;99.90;;;;;;4999858;28;20041;-82
2021/03/01 06:22:41;;;;;;;18.85;8.07;;;3.70;99.90;;;;;;5026674;28;20046;-82
2021/03/01 06:25:08;;;;;;;21.10;9.52;;;3.70;99.90;;;;;;5026061;28;20425;-82
2021/03/01 06:28:04;;;;;;;20.20;9.80;;;3.70;99.90;;;;;;5027341;28;20033;-82
2021/03/01 06:30:38;;;;;;;20.95;10.52;;;3.50;99.90;;;;;;5010245;28;20045;-82
2021/03/01 06:33:18;;;;;;;21.63;10.63;;;3.60;99.90;;;;;;5040027;28;20033;-82
2021/03/01 06:35:57;;;;;;;23.52;9.75;;;3.60;99.90;;;;;;5025018;28;20088;-83
2021/03/01 06:38:30;;;;;;;20.98;9.63;;;3.60;99.90;;;;;;5041320;28;20049;-82
2021/03/01 06:41:14;;;;;;;25.98;11.10;;;3.60;99.90;;;;;;5036809;28;20041;-82
2021/03/01 06:43:56;;;;;;;20.60;9.95;;;3.60;99.90;;;;;;5027560;28;20055;-82
2021/03/01 06:46:23;;;;;;;22.05;10.30;;;3.60;99.90;;;;;;5024923;28;20033;-83
2021/03/01 06:48:49;;;;;;;26.55;11.38;;;3.60;99.90;;;;;;5044141;28;20053;-82
2021/03/01 06:51:15;;;;;;;23.15;10.45;;;3.60;99.90;;;;;;5026659;28;20394;-83
2021/03/01 06:53:41;;;;;;;21.85;9.07;;;3.60;99.90;;;;;;5042823;28;20037;-83
2021/03/01 06:56:12;;;;;;;23.63;10.18;;;3.60;99.90;;;;;;5039120;28;20042;-82
2021/03/01 06:58:43;;;;;;;26.98;12.07;;;3.60;99.90;;;;;;5020302;28;20042;-82
2021/03/01 07:01:13;;;;;;;22.73;10.38;;;3.60;99.90;;;;;;5026902;28;20037;-81
2021/03/01 07:03:45;;;;;;;22.88;9.98;;;3.50;99.90;;;;;;5026536;28;20041;-82
2021/03/01 07:06:11;;;;;;;25.95;9.77;;;3.50;99.90;;;;;;5043543;28;20049;-82
2021/03/01 07:08:52;;;;;;;24.67;11.25;;;3.50;99.90;;;;;;5043346;28;20045;-82
2021/03/01 07:11:34;;;;;;;22.38;10.05;;;3.40;99.90;;;;;;5026465;28;20045;-81
2021/03/01 07:14:08;;;;;;;26.02;11.65;;;3.50;99.90;;;;;;5030671;28;20436;-82
2021/03/01 07:16:53;;;;;;;23.58;10.10;;;3.40;99.90;;;;;;5022796;28;20049;-82
2021/03/01 07:19:27;;;;;;;23.50;10.93;;;3.50;99.90;;;;;;5043286;28;20128;-82
2021/03/01 07:21:55;;;;;;;26.13;9.88;;;3.50;99.90;;;;;;5026473;28;20124;-82
2021/03/01 07:24:27;;;;;;;26.38;10.10;;;3.50;99.90;;;;;;5026149;28;20044;-82
2021/03/01 07:27:01;;;;;;;27.02;11.13;;;3.50;99.90;;;;;;5042874;28;20041;-82
2021/03/01 07:29:31;;;;;;;25.35;10.88;;;3.40;99.90;;;;;;5042966;28;20038;-82
2021/03/01 07:32:00;;;;;;;27.13;12.40;;;3.50;99.90;;;;;;5026426;28;20207;-82
2021/03/01 07:34:26;;;;;;;24.80;10.82;;;3.50;99.90;;;;;;5026227;28;20052;-82
2021/03/01 07:36:54;;;;;;;25.27;10.43;;;3.50;99.90;;;;;;5026378;28;20049;-82
2021/03/01 07:39:20;;;;;;;27.25;10.30;;;3.50;99.90;;;;;;5042457;28;20037;-82
2021/03/01 07:41:46;;;;;;;28.05;12.25;;;3.60;99.90;;;;;;5025957;28;20052;-81
2021/03/01 07:44:13;;;;;;;28.30;12.20;;;3.60;99.90;;;;;;5042279;28;20081;-82
2021/03/01 07:46:46;;;;;;;23.35;10.15;;;3.60;99.90;;;;;;5026502;28;20508;-82
2021/03/01 07:49:38;;;;;;;24.98;10.93;;;3.70;99.90;;;;;;5027492;28;20048;-82
2021/03/01 07:52:04;;;;;;;25.05;10.73;;;3.60;99.90;;;;;;5044723;28;20033;-82
2021/03/01 07:54:52;;;;;;;19.77;9.57;;;3.60;99.90;;;;;;5027193;28;20049;-83
2021/03/01 07:57:19;;;;;;;23.40;10.60;;;3.60;99.90;;;;;;5042558;28;20049;-82
2021/03/01 07:59:45;;;;;;;20.15;9.00;;;3.60;99.90;;;;;;5026936;28;20105;-82
2021/03/01 08:02:11;;;;;;;18.63;8.98;;;3.70;99.90;;;;;;5026754;28;20040;-82
2021/03/01 08:04:37;;;;;;;21.10;8.85;;;3.70;99.90;;;;;;5026930;28;20049;-83
2021/03/01 08:07:04;;;;;;;23.67;10.07;;;3.60;99.90;;;;;;5026359;28;20038;-83
2021/03/01 08:09:52;;;;;;;20.45;8.57;;;3.70;99.90;;;;;;5043324;28;20125;-83
2021/03/01 08:12:36;;;;;;;20.90;9.60;;;3.60;99.90;;;;;;5026952;28;20071;-83
2021/03/01 08:15:05;;;;;;;19.15;8.05;;;3.60;99.90;;;;;;5026927;28;20049;-83
2021/03/01 08:17:31;;;;;;;20.92;8.18;;;3.70;99.90;;;;;;5026829;28;20114;-83
2021/03/01 08:20:12;;;;;;;17.00;7.18;;;3.70;99.90;;;;;;5026888;28;20109;-82
2021/03/01 08:23:03;;;;;;;19.23;8.18;;;3.70;99.90;;;;;;5026729;28;20076;-83
2021/03/01 08:25:45;;;;;;;19.88;8.43;;;3.80;99.90;;;;;;5059628;28;20421;-83
2021/03/01 08:28:16;;;;;;;18.98;8.40;;;3.80;99.90;;;;;;5059640;28;20041;-83
2021/03/01 08:30:43;;;;;;;20.30;8.63;;;3.70;99.90;;;;;;5043237;28;20040;-83
2021/03/01 08:33:08;;;;;;;19.67;7.78;;;3.70;99.90;;;;;;5026593;28;20056;-83
2021/03/01 08:35:39;;;;;;;16.33;7.60;;;3.80;99.90;;;;;;5042717;28;20049;-82
2021/03/01 08:38:06;;;;;;;19.45;8.80;;;3.90;99.90;;;;;;5042845;28;20045;-83
2021/03/01 08:40:32;;;;;;;18.35;8.65;;;3.90;99.90;;;;;;5049907;28;20087;-84
2021/03/01 08:43:06;;;;;;;20.65;9.13;;;3.90;99.90;;;;;;5026382;28;20044;-83
2021/03/01 08:45:43;;;;;;;19.27;8.45;;;3.90;99.90;;;;;;5043428;28;20040;-83
2021/03/01 08:48:14;;;;;;;18.35;7.47;;;3.90;99.90;;;;;;5043111;28;20044;-82
2021/03/01 08:50:41;;;;;;;21.13;9.25;;;3.90;99.90;;;;;;5027977;28;20068;-83
2021/03/01 08:53:08;;;;;;;18.48;8.55;;;3.90;99.90;;;;;;5029725;28;20038;-83
2021/03/01 08:55:35;;;;;;;17.08;7.35;;;3.90;99.90;;;;;;5046387;28;20050;-82
2021/03/01 08:58:07;;;;;;;15.25;6.72;;;4.00;99.90;;;;;;5030214;28;20478;-83
2021/03/01 09:00:35;;;;;;;16.70;7.70;;;4.00;99.90;;;;;;5030178;28;20041;-83
2021/03/01 09:03:17;;;;;;;17.10;7.43;;;4.00;99.90;;;;;;5029954;28;20103;-83
2021/03/01 09:05:49;;;;;;;18.13;6.35;;;4.10;99.90;;;;;;5029641;28;20037;-83
2021/03/01 09:08:23;;;;;;;15.88;6.43;;;4.20;99.90;;;;;;5046306;28;20050;-83
2021/03/01 09:10:49;;;;;;;16.13;6.70;;;4.20;99.90;;;;;;5030076;28;20045;-83
2021/03/01 09:13:17;;;;;;;16.92;7.32;;;4.20;99.90;;;;;;5029896;28;20041;-83
2021/03/01 09:15:43;;;;;;;11.57;5.22;;;4.20;99.90;;;;;;5029979;28;20052;-83
2021/03/01 09:18:09;;;;;;;14.65;6.85;;;4.30;99.90;;;;;;5029978;28;20426;-83
2021/03/01 09:20:53;;;;;;;13.55;5.53;;;4.40;99.90;;;;;;5046393;28;20072;-83
2021/03/01 09:23:32;;;;;;;19.77;8.18;;;4.30;99.90;;;;;;5046216;28;20038;-83
2021/03/01 09:25:58;;;;;;;16.98;7.60;;;4.30;99.90;;;;;;5062774;28;20038;-83
2021/03/01 09:28:30;;;;;;;20.38;7.65;;;4.30;99.90;;;;;;5029797;28;20179;-83
2021/03/01 09:31:04;;;;;;;16.67;6.15;;;4.30;99.90;;;;;;5062575;28;20121;-83
2021/03/01 09:33:29;;;;;;;16.33;6.75;;;4.40;99.90;;;;;;5046254;28;20045;-83
2021/03/01 09:35:56;;;;;;;14.57;6.07;;;4.40;99.90;;;;;;5029264;28;20068;-83
2021/03/01 09:38:21;;;;;;;17.42;6.75;;;4.40;99.90;;;;;;5045634;28;20041;-84
2021/03/01 09:40:58;;;;;;;19.00;7.97;;;4.40;99.90;;;;;;5029446;28;20125;-83
2021/03/01 09:43:24;;;;;;;21.52;8.30;;;4.40;99.90;;;;;;5029588;28;20037;-82
2021/03/01 09:45:51;;;;;;;18.40;9.18;;;4.40;99.90;;;;;;5045715;28;20089;-83
2021/03/01 09:48:17;;;;;;;16.58;7.95;;;4.50;99.90;;;;;;5029317;28;20100;-83
2021/03/01 09:50:43;;;;;;;14.77;7.00;;;4.40;99.90;;;;;;5029210;28;20042;-83
2021/03/01 09:53:09;;;;;;;18.83;8.77;;;4.40;99.90;;;;;;5013165;28;20041;-83
2021/03/01 09:55:36;;;;;;;15.45;6.72;;;4.30;99.90;;;;;;5029123;28;20056;-83
2021/03/01 09:58:01;;;;;;;17.70;7.22;;;4.40;99.90;;;;;;5028952;28;20507;-83
2021/03/01 10:00:30;;;;;;;16.05;7.47;;;4.50;99.90;;;;;;5028855;28;20045;-83
2021/03/01 10:03:02;;;;;;;21.63;9.23;;;4.60;99.90;;;;;;5044887;28;20041;-83
2021/03/01 10:05:48;;;;;;;17.13;7.40;;;4.60;99.90;;;;;;5028713;28;20041;-83
2021/03/01 10:08:25;;;;;;;16.20;8.02;;;4.60;99.90;;;;;;4949930;29;20057;-83
2021/03/01 10:10:54;;;;;;;17.88;8.23;;;4.60;99.90;;;;;;4946856;29;20043;-83
2021/03/01 10:13:28;;;;;;;19.38;8.35;;;4.60;99.90;;;;;;4948843;29;20155;-84
2021/03/01 10:15:54;;;;;;;22.23;9.57;;;4.70;99.90;;;;;;4933808;29;20051;-84
2021/03/01 10:18:22;;;;;;;19.05;9.05;;;4.60;99.90;;;;;;4933961;29;20523;-83
2021/03/01 10:21:04;;;;;;;19.25;9.00;;;4.60;99.90;;;;;;4949876;29;20043;-84
2021/03/01 10:23:37;;;;;;;22.67;9.18;;;4.60;99.90;;;;;;4949946;29;20047;-83
2021/03/01 10:26:17;;;;;;;19.50;9.00;;;4.60;99.90;;;;;;4949385;29;20114;-83
2021/03/01 10:28:46;;;;;;;;;;;4.60;99.90;;;;;;4950041;29;20035;-84
2021/03/01 10:31:14;;;;;;;21.67;8.77;;;4.60;99.90;;;;;;4949490;29;19910;-83
2021/03/01 10:34:05;;;;;;;21.10;9.45;;;4.70;99.90;;;;;;4965899;29;20444;-83
2021/03/01 10:36:34;;;;;;;18.13;7.68;;;4.70;99.90;;;;;;4949221;29;20055;-84
2021/03/01 10:39:11;;;;;;;16.13;7.45;;;4.90;99.90;;;;;;4933694;29;20047;-83
2021/03/01 10:41:45;;;;;;;14.35;6.43;;;5.00;99.90;;;;;;4949487;29;20040;-83
2021/03/01 10:44:13;;;;;;;15.85;7.63;;;5.20;99.90;;;;;;4951670;28;20049;-83
2021/03/01 10:46:42;;;;;;;18.40;9.73;;;5.20;99.90;;;;;;5037188;28;20045;-83
2021/03/01 10:49:18;;;;;;;16.15;8.15;;;5.10;99.90;;;;;;5028101;28;20038;-84
2021/03/01 10:51:44;;;;;;;18.50;7.15;;;5.10;99.90;;;;;;5044462;28;20045;-83
2021/03/01 10:54:11;;;;;;;17.85;7.80;;;5.10;99.90;;;;;;5028069;28;20118;-83
2021/03/01 10:56:36;;;;;;;18.58;8.98;;;5.10;99.90;;;;;;5044265;28;20076;-83
2021/03/01 10:59:03;;;;;;;16.10;6.90;;;5.20;99.90;;;;;;5027936;28;20042;-83
2021/03/01 11:01:40;;;;;;;14.48;6.22;;;5.30;99.90;;;;;;5027717;28;20144;-84
2021/03/01 11:04:07;;;;;;;17.90;7.90;;;5.30;99.90;;;;;;5025125;28;20041;-83
2021/03/01 11:06:33;;;;;;;18.58;9.20;;;5.30;99.90;;;;;;5044129;28;20065;-83
2021/03/01 11:09:00;;;;;;;17.48;7.78;;;5.40;99.90;;;;;;5027470;28;20056;-83
2021/03/01 11:11:26;;;;;;;19.30;8.57;;;5.50;99.90;;;;;;5027840;28;20045;-83
2021/03/01 11:13:51;;;;;;;14.23;7.65;;;5.50;99.90;;;;;;5027585;28;20033;-84
2021/03/01 11:16:18;;;;;;;20.35;8.65;;;5.50;99.90;;;;;;5043789;28;20494;-83
2021/03/01 11:18:43;;;;;;;16.98;7.05;;;5.60;99.90;;;;;;5027764;28;20478;-84
2021/03/01 11:21:09;;;;;;;19.92;8.63;;;5.50;99.90;;;;;;5027836;28;20045;-83
2021/03/01 11:23:35;;;;;;;17.08;7.47;;;5.60;99.90;;;;;;5027628;28;20041;-83
2021/03/01 11:26:00;;;;;;;20.05;8.00;;;5.70;99.90;;;;;;5027737;28;20037;-83
2021/03/01 11:28:26;;;;;;;16.05;7.40;;;5.70;99.90;;;;;;5027656;28;20046;-84
2021/03/01 11:30:52;;;;;;;16.60;7.60;;;5.80;99.90;;;;;;5027571;28;20034;-83
2021/03/01 11:33:18;;;;;;;16.65;8.02;;;5.90;99.90;;;;;;5027471;28;20065;-83
2021/03/01 11:35:44;;;;;;;16.30;8.60;;;6.10;99.90;;;;;;5043769;28;20045;-84
2021/03/01 11:38:10;;;;;;;16.80;7.32;;;6.10;99.90;;;;;;5043782;28;20049;-83
2021/03/01 11:40:35;;;;;;;15.38;7.60;;;6.10;99.90;;;;;;5027487;28;20458;-82
2021/03/01 11:43:01;;;;;;;16.85;8.32;;;6.10;99.90;;;;;;5027306;28;20041;-83
2021/03/01 11:45:27;;;;;;;19.20;9.60;;;6.20;99.90;;;;;;5027264;28;20037;-83
2021/03/01 11:47:52;;;;;;;16.27;8.80;;;6.40;99.90;;;;;;5027006;28;20048;-83
2021/03/01 11:50:18;;;;;;;21.77;8.65;;;6.40;99.90;;;;;;5027294;28;20037;-83
2021/03/01 11:52:45;;;;;;;16.63;8.07;;;6.40;99.90;;;;;;5043649;28;20037;-82
2021/03/01 11:55:12;;;;;;;16.48;8.00;;;6.50;99.90;;;;;;5027192;28;20057;-83
2021/03/01 11:57:38;;;;;;;16.15;7.82;;;6.50;99.90;;;;;;5027086;28;20048;-83
2021/03/01 12:00:06;;;;;;;17.83;7.75;;;6.50;99.90;;;;;;5027115;28;20037;-84
2021/03/01 12:02:37;;;;;;;15.05;7.60;;;6.40;99.90;;;;;;5043618;28;20061;-84
2021/03/01 12:05:03;;;;;;;15.93;7.75;;;6.50;99.90;;;;;;5043319;28;20037;-83
2021/03/01 12:07:29;;;;;;;16.33;8.43;;;6.40;99.90;;;;;;5026526;28;20105;-83
2021/03/01 12:09:56;;;;;;;16.33;7.90;;;6.40;99.90;;;;;;5044355;28;20072;-83
2021/03/01 12:12:22;;;;;;;16.13;8.43;;;6.50;99.90;;;;;;5027449;28;20096;-83
2021/03/01 12:14:47;;;;;;;15.10;7.68;;;6.50;99.90;;;;;;5027481;28;20033;-83
2021/03/01 12:17:13;;;;;;;14.95;7.85;;;6.70;99.90;;;;;;5027309;28;20046;-83
2021/03/01 12:19:39;;;;;;;20.42;8.75;;;6.70;99.90;;;;;;5027562;28;20134;-84
2021/03/01 12:22:06;;;;;;;20.63;9.55;;;6.50;99.90;;;;;;5027691;28;20124;-83
2021/03/01 12:24:33;;;;;;;18.73;8.27;;;6.50;99.90;;;;;;5027301;28;20056;-83
2021/03/01 12:26:58;;;;;;;15.70;7.53;;;6.30;99.90;;;;;;5047638;28;20056;-83
2021/03/01 12:29:24;;;;;;;19.58;9.02;;;6.10;99.90;;;;;;5044527;28;20037;-82
2021/03/01 12:31:50;;;;;;;15.05;7.25;;;6.20;99.90;;;;;;5030439;28;20048;-83
2021/03/01 12:34:15;;;;;;;17.73;8.73;;;6.50;99.90;;;;;;5047029;28;20045;-83
2021/03/01 12:36:41;;;;;;;18.45;7.82;;;6.60;99.90;;;;;;5046483;28;20053;-83
2021/03/01 12:39:07;;;;;;;17.17;8.90;;;6.80;99.90;;;;;;5030238;28;20048;-82
2021/03/01 12:41:33;;;;;;;16.63;8.13;;;6.90;99.90;;;;;;5022395;28;20041;-82
2021/03/01 12:43:58;;;;;;;15.27;7.30;;;7.00;99.90;;;;;;5029867;28;20056;-82
2021/03/01 12:46:25;;;;;;;15.77;8.68;;;7.10;99.90;;;;;;5029770;28;20041;-82
2021/03/01 12:48:51;;;;;;;15.23;8.43;;;7.30;99.90;;;;;;5029963;28;20029;-82
2021/03/01 12:51:17;;;;;;;15.80;7.60;;;7.40;99.90;;;;;;5002190;28;20529;-82
2021/03/01 12:53:43;;;;;;;17.67;8.63;;;7.60;99.90;;;;;;5031672;28;20053;-83
2021/03/01 12:56:09;;;;;;;14.52;7.78;;;7.80;99.90;;;;;;5029829;28;20053;-82
2021/03/01 12:58:35;;;;;;;16.17;7.95;;;7.80;99.90;;;;;;5046088;28;20041;-82
2021/03/01 13:01:00;;;;;;;14.82;8.35;;;7.70;99.90;;;;;;5046693;28;20071;-82